createdAt,value
2017-09-08T00:01:20.129Z,74.70
2017-09-08T00:03:46.751Z,74.60
2017-09-08T00:06:13.027Z,74.40
2017-09-08T00:08:40.107Z,74.60
2017-09-08T00:11:06.583Z,74.50
2017-09-08T00:13:32.907Z,74.60
2017-09-08T00:15:59.228Z,74.70
2017-09-08T00:18:26.762Z,74.70
2017-09-08T00:20:53.078Z,74.90
2017-09-08T00:23:19.333Z,75.10
2017-09-08T00:25:46.001Z,74.60
2017-09-08T00:28:12.333Z,74.70
2017-09-08T00:30:38.597Z,74.80
2017-09-08T00:33:05.983Z,74.40
2017-09-08T00:35:32.297Z,74.40
2017-09-08T00:37:58.653Z,74.10
2017-09-08T00:40:25.313Z,74.00
2017-09-08T00:42:51.566Z,73.90
2017-09-08T00:45:18.586Z,74.10
2017-09-08T00:47:45.122Z,73.90
2017-09-08T00:50:11.450Z,74.30
2017-09-08T00:52:37.920Z,73.90
2017-09-08T00:55:05.307Z,74.90
2017-09-08T00:57:31.616Z,74.80
2017-09-08T00:59:57.930Z,74.50
2017-09-08T01:02:25.360Z,74.20
2017-09-08T01:04:51.634Z,74.20
2017-09-08T01:07:17.925Z,74.60
2017-09-08T01:09:44.452Z,74.20
2017-09-08T01:12:11.522Z,74.40
2017-09-08T01:14:37.845Z,74.50
2017-09-08T01:17:04.475Z,74.30
2017-09-08T01:19:30.794Z,74.30
2017-09-08T01:21:57.070Z,74.00
2017-09-08T01:24:23.738Z,74.20
2017-09-08T01:26:50.010Z,74.40
2017-09-08T01:29:16.292Z,74.10
2017-09-08T01:31:42.923Z,75.00
2017-09-08T01:34:09.188Z,74.90
2017-09-08T01:36:35.461Z,74.60
2017-09-08T01:39:02.876Z,75.30
2017-09-08T01:41:29.136Z,75.20
2017-09-08T01:43:56.230Z,74.70
2017-09-08T01:46:22.896Z,74.70
2017-09-08T01:48:49.941Z,75.20
2017-09-08T01:51:16.285Z,75.10
2017-09-08T01:53:43.021Z,75.10
2017-09-08T01:56:09.334Z,74.80
2017-09-08T01:58:35.623Z,74.70
2017-09-08T02:01:02.249Z,74.90
2017-09-08T02:03:29.401Z,74.40
2017-09-08T02:05:55.632Z,74.40
2017-09-08T02:08:22.129Z,74.50
2017-09-08T02:10:49.152Z,74.00
2017-09-08T02:13:15.456Z,74.10
2017-09-08T02:15:42.103Z,74.70
2017-09-08T02:18:08.386Z,74.80
2017-09-08T02:20:34.663Z,74.20
2017-09-08T02:23:01.342Z,74.00
2017-09-08T02:25:27.644Z,74.00
2017-09-08T02:27:53.893Z,73.50
2017-09-08T02:30:20.495Z,74.20
2017-09-08T02:32:46.751Z,74.00
2017-09-08T02:35:13.024Z,73.70
2017-09-08T02:37:40.323Z,73.80
2017-09-08T02:40:06.632Z,73.60
2017-09-08T02:42:32.964Z,73.70
2017-09-08T02:44:59.556Z,73.60
2017-09-08T02:47:25.806Z,74.20
2017-09-08T02:49:52.808Z,73.80
2017-09-08T02:52:19.393Z,73.80
2017-09-08T02:54:45.650Z,73.90
2017-09-08T02:57:11.948Z,73.70
2017-09-08T02:59:39.180Z,73.90
2017-09-08T03:02:05.529Z,73.80
2017-09-08T03:04:32.554Z,74.60
2017-09-08T03:06:59.902Z,74.10
2017-09-08T03:09:26.976Z,74.10
2017-09-08T03:11:54.015Z,74.20
2017-09-08T03:14:20.593Z,74.00
2017-09-08T03:16:46.900Z,73.80
2017-09-08T03:19:13.986Z,73.90
2017-09-08T03:21:40.648Z,73.90
2017-09-08T03:24:06.958Z,74.20
2017-09-08T03:26:33.251Z,74.50
2017-09-08T03:29:00.667Z,74.90
2017-09-08T03:31:26.958Z,74.80
2017-09-08T03:33:53.210Z,74.90
2017-09-08T03:36:19.925Z,74.90
2017-09-08T03:38:46.750Z,74.90
2017-09-08T03:41:13.789Z,74.70
2017-09-08T03:43:40.805Z,74.50
2017-09-08T03:46:07.109Z,74.50
2017-09-08T03:48:33.443Z,74.50
2017-09-08T03:51:00.071Z,74.60
2017-09-08T03:53:26.385Z,74.60
2017-09-08T03:55:52.654Z,75.00
2017-09-08T03:58:18.992Z,75.00
2017-09-08T04:00:45.341Z,74.90
2017-09-08T04:03:12.309Z,75.00
2017-09-08T04:05:39.393Z,74.00
2017-09-08T04:08:05.701Z,74.00
2017-09-08T04:10:32.015Z,73.80
2017-09-08T04:12:59.067Z,74.30
2017-09-08T04:15:26.106Z,74.90
2017-09-08T04:17:52.354Z,74.90
2017-09-08T04:20:18.903Z,74.50
2017-09-08T04:22:45.158Z,74.30
2017-09-08T04:25:11.457Z,73.70
2017-09-08T04:27:37.797Z,74.00
2017-09-08T04:30:04.088Z,73.90
2017-09-08T04:32:31.125Z,74.10
2017-09-08T04:34:58.220Z,74.80
2017-09-08T04:37:30.926Z,74.50
2017-09-08T04:39:57.217Z,74.00
2017-09-08T04:42:23.862Z,74.00
2017-09-08T04:44:50.273Z,74.20
2017-09-08T04:47:17.353Z,74.50
2017-09-08T04:49:43.978Z,74.40
2017-09-08T04:52:10.212Z,74.20
2017-09-08T04:54:36.506Z,74.50
2017-09-08T04:57:03.897Z,74.30
2017-09-08T04:59:30.199Z,74.30
2017-09-08T05:01:56.487Z,75.00
2017-09-08T05:04:22.836Z,74.70
2017-09-08T05:06:49.141Z,74.30
2017-09-08T05:09:15.423Z,75.00
2017-09-08T05:11:42.500Z,74.50
2017-09-08T05:14:08.821Z,74.50
2017-09-08T05:16:35.152Z,74.50
2017-09-08T05:19:01.800Z,75.10
2017-09-08T05:21:28.080Z,74.40
2017-09-08T05:23:54.323Z,74.30
2017-09-08T05:26:20.635Z,74.20
2017-09-08T05:28:46.915Z,74.20
2017-09-08T05:31:13.242Z,74.00
2017-09-08T05:33:39.921Z,74.30
2017-09-08T05:36:06.286Z,73.90
2017-09-08T05:38:33.328Z,74.00
2017-09-08T05:41:00.553Z,74.60
2017-09-08T05:43:26.877Z,73.80
2017-09-08T05:45:53.101Z,73.90
2017-09-08T05:48:19.521Z,73.70
2017-09-08T05:50:45.810Z,73.40
2017-09-08T05:53:12.881Z,73.40
2017-09-08T05:55:39.244Z,73.40
2017-09-08T05:58:05.757Z,73.60
2017-09-08T06:00:32.056Z,73.30
2017-09-08T06:02:59.457Z,73.80
2017-09-08T06:05:25.731Z,73.60
2017-09-08T06:07:52.792Z,74.30
2017-09-08T06:10:19.156Z,74.30
2017-09-08T06:12:45.474Z,73.80
2017-09-08T06:15:11.733Z,73.30
2017-09-08T06:17:38.101Z,73.40
2017-09-08T06:20:05.117Z,73.50
2017-09-08T06:22:31.374Z,73.50
2017-09-08T06:24:58.561Z,73.70
2017-09-08T06:27:24.809Z,72.80
2017-09-08T06:29:51.156Z,73.10
2017-09-08T06:32:17.811Z,73.30
2017-09-08T06:34:44.058Z,72.30
2017-09-08T06:37:11.087Z,72.70
2017-09-08T06:39:44.578Z,72.60
2017-09-08T06:42:10.910Z,73.60
2017-09-08T06:44:37.213Z,73.30
2017-09-08T06:47:03.880Z,73.00
2017-09-08T06:49:30.229Z,72.10
2017-09-08T06:51:57.268Z,71.50
2017-09-08T06:54:23.638Z,71.40
2017-09-08T06:56:49.928Z,72.50
2017-09-08T06:59:16.173Z,71.70
2017-09-08T07:01:43.600Z,70.90
2017-09-08T07:04:09.885Z,70.90
2017-09-08T07:06:36.144Z,71.50
2017-09-08T07:09:02.479Z,71.00
2017-09-08T07:11:28.773Z,71.80
2017-09-08T07:13:55.022Z,69.70
2017-09-08T07:16:21.348Z,69.90
2017-09-08T07:18:47.684Z,70.10
2017-09-08T07:21:14.015Z,70.20
2017-09-08T07:23:40.689Z,68.50
2017-09-08T07:26:06.924Z,69.10
2017-09-08T07:28:33.154Z,70.70
2017-09-08T07:30:59.789Z,70.80
2017-09-08T07:33:26.086Z,71.00
2017-09-08T07:35:53.061Z,71.40
2017-09-08T07:38:19.686Z,69.60
2017-09-08T07:40:45.964Z,70.00
2017-09-08T07:43:13.033Z,68.70
2017-09-08T07:45:39.381Z,68.60
2017-09-08T07:48:05.675Z,69.60
2017-09-08T07:50:31.971Z,69.30
2017-09-08T07:52:58.248Z,69.10
2017-09-08T07:55:24.552Z,70.00
2017-09-08T07:57:51.587Z,68.80
2017-09-08T08:00:18.978Z,67.50
2017-09-08T08:02:45.303Z,67.50
2017-09-08T08:05:11.632Z,67.50
2017-09-08T08:07:37.957Z,68.20
2017-09-08T08:10:04.268Z,68.60
2017-09-08T08:12:31.317Z,67.90
2017-09-08T08:14:58.384Z,68.90
2017-09-08T08:17:24.649Z,68.00
2017-09-08T08:19:50.992Z,67.00
2017-09-08T08:22:17.309Z,67.90
2017-09-08T08:24:43.930Z,67.70
2017-09-08T08:27:10.251Z,67.00
2017-09-08T08:29:36.568Z,66.60
2017-09-08T08:32:03.653Z,67.00
2017-09-08T08:34:29.912Z,67.00
2017-09-08T08:36:56.181Z,67.00
2017-09-08T08:39:22.487Z,66.00
2017-09-08T08:41:48.726Z,65.70
2017-09-08T08:44:15.727Z,65.90
2017-09-08T08:46:42.103Z,65.90
2017-09-08T08:49:09.605Z,66.00
2017-09-08T08:51:35.925Z,66.00
2017-09-08T08:54:02.232Z,65.70
2017-09-08T08:56:29.316Z,64.30
2017-09-08T08:58:55.615Z,64.20
2017-09-08T09:01:21.889Z,63.30
2017-09-08T09:03:48.264Z,64.90
2017-09-08T09:06:14.472Z,62.60
2017-09-08T09:08:41.659Z,59.80
2017-09-08T09:11:08.054Z,59.80
2017-09-08T09:13:34.462Z,59.30
2017-09-08T09:16:00.581Z,58.20
2017-09-08T09:18:26.865Z,59.80
2017-09-08T09:20:53.897Z,59.60
2017-09-08T09:23:20.235Z,59.50
2017-09-08T09:25:47.671Z,59.30
2017-09-08T09:28:13.998Z,59.30
2017-09-08T09:30:40.316Z,59.70
2017-09-08T09:33:06.946Z,61.80
2017-09-08T09:35:33.255Z,60.10
2017-09-08T09:37:59.519Z,58.60
2017-09-08T09:40:25.976Z,58.70
2017-09-08T09:42:52.296Z,58.30
2017-09-08T09:45:18.697Z,58.60
2017-09-08T09:47:44.963Z,59.40
2017-09-08T09:50:11.233Z,59.50
2017-09-08T09:52:37.514Z,59.30
2017-09-08T09:55:03.782Z,58.70
2017-09-08T09:57:30.078Z,58.20
2017-09-08T09:59:56.362Z,57.10
2017-09-08T10:02:22.693Z,57.50
2017-09-08T10:04:49.014Z,57.40
2017-09-08T10:07:15.368Z,57.10
2017-09-08T10:09:41.694Z,54.80
2017-09-08T10:12:08.018Z,55.10
2017-09-08T10:14:34.337Z,55.10
2017-09-08T10:17:00.673Z,54.30
2017-09-08T10:19:26.828Z,55.00
2017-09-08T10:21:53.751Z,54.60
2017-09-08T10:24:20.096Z,54.30
2017-09-08T10:26:46.592Z,54.00
2017-09-08T10:29:13.631Z,53.00
2017-09-08T10:31:40.688Z,53.50
2017-09-08T10:34:07.031Z,53.40
2017-09-08T10:36:33.362Z,53.50
2017-09-08T10:39:00.694Z,54.00
2017-09-08T10:41:28.625Z,53.70
2017-09-08T10:43:54.916Z,53.50
2017-09-08T10:46:21.241Z,53.80
2017-09-08T10:48:47.487Z,53.50
2017-09-08T10:51:13.808Z,53.40
2017-09-08T10:53:40.128Z,53.10
2017-09-08T10:56:06.376Z,53.10
2017-09-08T10:58:32.679Z,53.90
2017-09-08T11:00:59.749Z,54.00
2017-09-08T11:03:26.049Z,53.90
2017-09-08T11:05:53.102Z,53.60
2017-09-08T11:08:20.156Z,53.30
2017-09-08T11:10:47.342Z,50.90
2017-09-08T11:13:13.621Z,50.90
2017-09-08T11:15:40.733Z,52.00
2017-09-08T11:18:07.053Z,52.10
2017-09-08T11:20:33.275Z,52.70
2017-09-08T11:22:59.902Z,51.30
2017-09-08T11:25:26.156Z,52.00
2017-09-08T11:27:52.421Z,52.00
2017-09-08T11:30:19.505Z,52.20
2017-09-08T11:32:52.771Z,52.20
2017-09-08T11:35:25.960Z,50.60
2017-09-08T11:37:52.261Z,50.60
2017-09-08T11:40:18.602Z,50.40
2017-09-08T11:42:44.899Z,49.60
2017-09-08T11:45:11.218Z,50.40
2017-09-08T11:47:37.857Z,50.10
2017-09-08T11:50:04.113Z,50.10
2017-09-08T11:52:30.390Z,49.50
2017-09-08T11:54:56.572Z,50.20
2017-09-08T11:57:22.881Z,48.60
2017-09-08T11:59:49.615Z,49.20
2017-09-08T12:02:15.982Z,50.20
2017-09-08T12:04:42.289Z,51.20
2017-09-08T12:07:08.598Z,50.90
2017-09-08T12:09:34.924Z,50.70
2017-09-08T12:12:01.610Z,50.00
2017-09-08T12:14:27.889Z,50.30
2017-09-08T12:16:54.919Z,51.50
2017-09-08T12:19:21.924Z,51.50
2017-09-08T12:21:48.215Z,51.50
2017-09-08T12:24:14.688Z,50.00
2017-09-08T12:26:40.962Z,50.30
2017-09-08T12:29:07.947Z,49.40
2017-09-08T12:31:34.278Z,49.40
2017-09-08T12:34:00.575Z,48.00
2017-09-08T12:36:27.233Z,48.90
2017-09-08T12:38:53.528Z,47.00
2017-09-08T12:41:19.811Z,46.30
2017-09-08T12:43:46.158Z,46.70
2017-09-08T12:46:12.439Z,46.80
2017-09-08T12:48:38.794Z,47.10
2017-09-08T12:51:05.113Z,45.50
2017-09-08T12:53:31.365Z,46.20
2017-09-08T12:55:57.690Z,47.40
2017-09-08T12:58:24.010Z,46.50
2017-09-08T13:00:50.703Z,45.70
2017-09-08T13:03:16.996Z,46.80
2017-09-08T13:05:43.250Z,47.00
2017-09-08T13:08:09.497Z,47.30
2017-09-08T13:10:36.577Z,47.60
2017-09-08T13:13:02.889Z,48.10
2017-09-08T13:15:29.897Z,48.10
2017-09-08T13:17:56.198Z,48.00
2017-09-08T13:20:22.478Z,48.00
2017-09-08T13:22:48.795Z,48.50
2017-09-08T13:25:15.532Z,49.20
2017-09-08T13:27:41.915Z,48.70
2017-09-08T13:30:08.227Z,48.80
2017-09-08T13:32:34.624Z,50.50
2017-09-08T13:35:00.936Z,49.40
2017-09-08T13:37:27.240Z,49.20
2017-09-08T13:39:53.549Z,49.30
2017-09-08T13:42:20.595Z,49.80
2017-09-08T13:44:47.630Z,49.20
2017-09-08T13:47:13.997Z,49.10
2017-09-08T13:49:40.309Z,49.90
2017-09-08T13:52:07.323Z,49.80
2017-09-08T13:54:33.664Z,49.80
2017-09-08T13:56:59.958Z,50.00
2017-09-08T13:59:26.264Z,49.90
2017-09-08T14:01:53.057Z,50.20
2017-09-08T14:04:19.330Z,50.40
2017-09-08T14:06:46.350Z,50.90
2017-09-08T14:09:12.681Z,50.90
2017-09-08T14:11:39.736Z,51.20
2017-09-08T14:14:06.742Z,51.60
2017-09-08T14:16:33.028Z,51.50
2017-09-08T14:19:00.048Z,51.90
2017-09-08T14:21:26.358Z,51.80
2017-09-08T14:23:52.625Z,52.00
2017-09-08T14:26:18.932Z,52.50
2017-09-08T14:28:45.233Z,52.60
2017-09-08T14:31:11.854Z,52.30
2017-09-08T14:33:38.126Z,52.50
2017-09-08T14:36:05.135Z,52.10
2017-09-08T14:38:31.484Z,52.20
2017-09-08T14:40:57.794Z,51.80
2017-09-08T14:43:24.928Z,52.40
2017-09-08T14:45:51.613Z,52.50
2017-09-08T14:48:17.954Z,52.70
2017-09-08T14:50:44.270Z,51.80
2017-09-08T14:53:10.549Z,52.80
2017-09-08T14:55:37.586Z,52.90
2017-09-08T14:58:04.637Z,52.70
2017-09-08T15:00:31.667Z,52.70
2017-09-08T15:02:57.940Z,52.70
2017-09-08T15:05:24.269Z,53.20
2017-09-08T15:07:50.586Z,53.30
2017-09-08T15:10:16.879Z,53.90
2017-09-08T15:12:43.173Z,53.50
2017-09-08T15:15:09.517Z,54.10
2017-09-08T15:17:35.806Z,53.30
2017-09-08T15:20:02.088Z,53.20
2017-09-08T15:22:28.685Z,52.50
2017-09-08T15:24:55.296Z,52.70
2017-09-08T15:27:22.341Z,50.60
2017-09-08T15:29:49.367Z,50.60
2017-09-08T15:32:15.671Z,50.50
2017-09-08T15:34:41.986Z,51.50
2017-09-08T15:37:08.313Z,50.80
2017-09-08T15:39:34.560Z,51.20
2017-09-08T15:42:00.940Z,50.90
2017-09-08T15:44:28.019Z,52.20
2017-09-08T15:46:54.325Z,51.50
2017-09-08T15:49:21.322Z,50.80
2017-09-08T15:51:47.609Z,50.80
2017-09-08T15:54:14.677Z,51.20
2017-09-08T15:56:41.036Z,51.20
2017-09-08T15:59:07.748Z,51.40
2017-09-08T16:01:33.983Z,51.50
2017-09-08T16:04:00.273Z,51.30
2017-09-08T16:06:27.259Z,51.50
2017-09-08T16:08:53.523Z,51.50
2017-09-08T16:11:19.826Z,51.90
2017-09-08T16:13:46.484Z,51.20
2017-09-08T16:16:12.786Z,51.50
2017-09-08T16:18:39.108Z,52.80
2017-09-08T16:21:05.403Z,52.00
2017-09-08T16:23:32.410Z,52.20
2017-09-08T16:25:58.649Z,52.20
2017-09-08T16:28:24.944Z,51.80
2017-09-08T16:30:51.272Z,52.20
2017-09-08T16:33:17.584Z,52.50
2017-09-08T16:35:45.004Z,52.70
2017-09-08T16:38:11.261Z,52.70
2017-09-08T16:40:38.281Z,52.90
2017-09-08T16:43:04.882Z,52.90
2017-09-08T16:45:31.202Z,53.00
2017-09-08T16:47:57.475Z,53.10
2017-09-08T16:50:23.749Z,53.40
2017-09-08T16:52:50.821Z,55.00
2017-09-08T16:55:17.758Z,55.00
2017-09-08T16:57:44.074Z,56.50
2017-09-08T17:00:11.127Z,55.00
2017-09-08T17:02:37.422Z,55.00
2017-09-08T17:05:03.709Z,55.20
2017-09-08T17:07:30.040Z,55.40
2017-09-08T17:09:56.372Z,55.10
2017-09-08T17:12:22.684Z,55.50
2017-09-08T17:14:49.008Z,55.80
2017-09-08T17:17:15.301Z,55.60
2017-09-08T17:19:41.964Z,55.90
2017-09-08T17:22:08.243Z,56.90
2017-09-08T17:24:34.568Z,57.40
2017-09-08T17:27:01.332Z,57.30
2017-09-08T17:29:27.616Z,57.60
2017-09-08T17:31:53.926Z,57.70
2017-09-08T17:34:20.229Z,57.10
2017-09-08T17:36:46.487Z,57.10
2017-09-08T17:39:12.805Z,57.50
2017-09-08T17:41:39.906Z,58.90
2017-09-08T17:44:06.231Z,58.90
2017-09-08T17:46:32.528Z,58.40
2017-09-08T17:48:58.789Z,59.40
2017-09-08T17:51:25.092Z,59.70
2017-09-08T17:53:51.445Z,60.30
2017-09-08T17:56:17.738Z,61.40
2017-09-08T17:58:44.787Z,62.40
2017-09-08T18:01:11.858Z,62.80
2017-09-08T18:03:38.181Z,62.80
2017-09-08T18:06:04.475Z,62.80
2017-09-08T18:08:31.207Z,62.90
2017-09-08T18:10:57.549Z,63.90
2017-09-08T18:13:23.833Z,63.60
2017-09-08T18:15:50.157Z,64.60
2017-09-08T18:18:16.435Z,64.50
2017-09-08T18:20:42.695Z,64.80
2017-09-08T18:23:09.025Z,64.80
2017-09-08T18:25:35.332Z,64.70
2017-09-08T18:28:02.377Z,65.90
2017-09-08T18:30:28.661Z,65.90
2017-09-08T18:32:54.943Z,65.90
2017-09-08T18:35:21.631Z,66.20
2017-09-08T18:37:47.918Z,66.90
2017-09-08T18:40:14.914Z,68.40
2017-09-08T18:42:41.533Z,67.20
2017-09-08T18:45:07.754Z,66.70
2017-09-08T18:47:34.038Z,67.30
2017-09-08T18:50:00.396Z,67.30
2017-09-08T18:52:27.439Z,67.80
2017-09-08T18:54:54.457Z,67.50
2017-09-08T18:57:20.706Z,67.40
2017-09-08T18:59:47.012Z,67.90
2017-09-08T19:02:13.365Z,68.10
2017-09-08T19:04:39.685Z,67.90
2017-09-08T19:07:06.030Z,68.70
2017-09-08T19:09:32.275Z,68.40
2017-09-08T19:11:59.497Z,68.60
2017-09-08T19:14:25.822Z,68.50
2017-09-08T19:16:52.160Z,69.80
2017-09-08T19:19:18.905Z,69.00
2017-09-08T19:21:45.989Z,69.40
2017-09-08T19:24:12.273Z,69.30
2017-09-08T19:26:38.868Z,69.30
2017-09-08T19:29:05.333Z,69.50
2017-09-08T19:31:31.607Z,69.40
2017-09-08T19:33:58.675Z,69.90
2017-09-08T19:36:24.946Z,69.90
2017-09-08T19:38:51.323Z,70.10
2017-09-08T19:41:17.686Z,69.80
2017-09-08T19:43:44.022Z,69.90
2017-09-08T19:46:10.286Z,69.90
2017-09-08T19:48:36.563Z,69.80
2017-09-08T19:51:02.884Z,70.00
2017-09-08T19:53:29.236Z,69.70
2017-09-08T19:55:55.974Z,69.40
2017-09-08T19:58:22.237Z,69.80
2017-09-08T20:00:48.512Z,69.80
2017-09-08T20:03:14.881Z,69.70
2017-09-08T20:05:41.199Z,70.40
2017-09-08T20:08:07.481Z,70.00
2017-09-08T20:10:34.489Z,70.30
2017-09-08T20:13:00.747Z,70.30
2017-09-08T20:15:27.074Z,70.20
2017-09-08T20:17:53.387Z,69.90
2017-09-08T20:20:19.696Z,69.90
2017-09-08T20:22:46.726Z,70.00
2017-09-08T20:25:13.366Z,70.10
2017-09-08T20:27:39.652Z,70.70
2017-09-08T20:30:05.948Z,70.70
2017-09-08T20:32:32.613Z,70.60
2017-09-08T20:34:58.961Z,70.50
2017-09-08T20:37:26.064Z,69.80
2017-09-08T20:39:52.784Z,69.80
2017-09-08T20:42:19.189Z,69.90
2017-09-08T20:44:46.260Z,70.30
2017-09-08T20:47:12.938Z,70.30
2017-09-08T20:49:39.319Z,71.10
2017-09-08T20:52:06.378Z,71.10
2017-09-08T20:54:33.537Z,71.10
2017-09-08T20:56:59.941Z,71.10
2017-09-08T20:59:26.307Z,71.50
2017-09-08T21:01:52.612Z,71.50
2017-09-08T21:04:18.951Z,71.10
2017-09-08T21:06:45.374Z,70.90
2017-09-08T21:09:12.190Z,71.00
2017-09-08T21:11:38.524Z,71.40
2017-09-08T21:14:05.650Z,71.70
2017-09-08T21:16:31.992Z,70.90
2017-09-08T21:18:58.299Z,70.60
2017-09-08T21:21:24.611Z,70.70
2017-09-08T21:23:51.246Z,71.00
2017-09-08T21:26:17.565Z,71.00
2017-09-08T21:28:43.866Z,71.40
2017-09-08T21:31:10.932Z,71.30
2017-09-08T21:33:37.953Z,70.80
2017-09-08T21:36:04.224Z,70.70
2017-09-08T21:38:30.649Z,70.80
2017-09-08T21:40:56.925Z,70.80
2017-09-08T21:43:23.284Z,70.80
2017-09-08T21:45:50.725Z,70.90
2017-09-08T21:48:17.022Z,70.30
2017-09-08T21:50:43.297Z,70.40
2017-09-08T21:53:09.980Z,70.00
2017-09-08T21:55:36.286Z,70.30
2017-09-08T21:58:03.323Z,70.20
2017-09-08T22:00:30.320Z,70.40
2017-09-08T22:02:56.575Z,70.40
2017-09-08T22:05:22.920Z,70.80
2017-09-08T22:07:49.613Z,70.40
2017-09-08T22:10:15.930Z,70.50
2017-09-08T22:12:42.207Z,70.90
2017-09-08T22:15:08.839Z,70.70
2017-09-08T22:17:35.126Z,71.00
2017-09-08T22:20:01.436Z,70.30
2017-09-08T22:22:28.965Z,71.10
2017-09-08T22:24:55.268Z,71.00
2017-09-08T22:27:21.529Z,71.20
2017-09-08T22:29:47.809Z,71.20
2017-09-08T22:32:14.133Z,71.30
2017-09-08T22:34:41.081Z,71.10
2017-09-08T22:37:07.378Z,70.90
2017-09-08T22:39:33.662Z,71.50
2017-09-08T22:41:59.915Z,70.90
2017-09-08T22:44:27.146Z,71.10
2017-09-08T22:46:53.474Z,71.80
2017-09-08T22:49:19.824Z,71.90
2017-09-08T22:51:46.394Z,71.60
2017-09-08T22:54:13.445Z,71.90
2017-09-08T22:56:40.456Z,71.50
2017-09-08T22:59:07.163Z,71.40
2017-09-08T23:01:33.417Z,71.70
2017-09-08T23:03:59.712Z,71.60
2017-09-08T23:06:26.301Z,71.80
2017-09-08T23:08:59.481Z,71.30
2017-09-08T23:11:25.726Z,71.50
2017-09-08T23:13:52.392Z,71.20
2017-09-08T23:16:19.466Z,71.10
2017-09-08T23:18:45.800Z,71.10
2017-09-08T23:21:12.430Z,71.30
2017-09-08T23:23:38.761Z,71.50
2017-09-08T23:26:05.017Z,71.40
2017-09-08T23:28:31.643Z,71.80
2017-09-08T23:30:57.912Z,71.80
2017-09-08T23:33:24.240Z,71.80
2017-09-08T23:35:50.965Z,71.90
2017-09-08T23:38:17.246Z,72.10
2017-09-08T23:40:44.282Z,71.90
2017-09-08T23:43:10.988Z,71.90
2017-09-08T23:45:37.285Z,72.20
2017-09-08T23:48:03.584Z,72.10
2017-09-08T23:50:30.976Z,72.00
2017-09-08T23:52:57.240Z,72.10
2017-09-08T23:58:16.529Z,72.30
